createdAt,value
2022-11-17T00:02:15.006Z,6.40
2022-11-17T00:04:43.255Z,5.23
2022-11-17T00:07:11.290Z,4.73
2022-11-17T00:09:39.288Z,5.70
2022-11-17T00:12:31.391Z,4.77
2022-11-17T00:15:00.733Z,5.23
2022-11-17T00:17:28.672Z,5.10
2022-11-17T00:20:10.476Z,3.43
2022-11-17T00:22:38.428Z,5.40
2022-11-17T00:25:06.934Z,4.47
2022-11-17T00:27:36.287Z,4.10
2022-11-17T00:30:04.750Z,6.57
2022-11-17T00:32:50.173Z,6.60
2022-11-17T00:35:18.246Z,6.60
2022-11-17T00:38:00.079Z,6.13
2022-11-17T00:40:28.305Z,7.90
2022-11-17T00:42:57.710Z,6.70
2022-11-17T00:45:25.695Z,5.37
2022-11-17T00:47:53.609Z,6.50
2022-11-17T00:50:21.537Z,6.60
2022-11-17T00:52:49.514Z,6.53
2022-11-17T00:55:17.678Z,5.90
2022-11-17T00:57:45.738Z,7.40
2022-11-17T01:00:16.690Z,5.23
2022-11-17T01:02:46.037Z,6.87
2022-11-17T01:05:13.997Z,8.43
2022-11-17T01:07:41.923Z,6.30
2022-11-17T01:10:10.620Z,6.70
2022-11-17T01:12:38.740Z,6.67
2022-11-17T01:15:07.543Z,6.30
2022-11-17T01:17:35.528Z,6.70
2022-11-17T01:20:05.589Z,5.57
2022-11-17T01:22:33.556Z,6.97
2022-11-17T01:25:01.576Z,8.40
2022-11-17T01:27:29.528Z,7.37
2022-11-17T01:29:57.487Z,7.20
2022-11-17T01:32:25.461Z,7.20
2022-11-17T01:34:53.408Z,5.70
2022-11-17T01:37:22.731Z,6.07
2022-11-17T01:39:51.277Z,5.87
2022-11-17T01:42:21.357Z,5.50
2022-11-17T01:44:58.687Z,7.30
2022-11-17T01:47:32.665Z,6.00
2022-11-17T01:50:05.829Z,5.33
2022-11-17T01:52:37.296Z,5.40
2022-11-17T01:55:07.883Z,5.30
2022-11-17T01:57:41.773Z,7.47
2022-11-17T02:00:11.497Z,6.80
2022-11-17T02:02:41.930Z,7.00
2022-11-17T02:05:23.655Z,5.03
2022-11-17T02:07:55.782Z,6.10
2022-11-17T02:10:23.776Z,6.60
2022-11-17T02:12:53.280Z,4.73
2022-11-17T02:15:21.822Z,4.13
2022-11-17T02:17:51.710Z,4.40
2022-11-17T02:20:27.893Z,3.50
2022-11-17T02:23:24.550Z,2.50
2022-11-17T02:26:07.696Z,3.17
2022-11-17T02:28:38.525Z,3.33
2022-11-17T02:31:20.045Z,3.07
2022-11-17T02:33:55.545Z,2.70
2022-11-17T02:36:33.512Z,2.87
2022-11-17T02:39:10.921Z,3.27
2022-11-17T02:41:47.494Z,3.07
2022-11-17T02:44:21.710Z,1.93
2022-11-17T02:46:55.448Z,2.00
2022-11-17T02:49:27.008Z,2.67
2022-11-17T02:51:57.862Z,1.80
2022-11-17T02:54:29.141Z,3.00
2022-11-17T02:56:58.370Z,2.30
2022-11-17T02:59:30.548Z,1.70
2022-11-17T03:02:21.097Z,2.03
2022-11-17T03:05:04.501Z,2.17
2022-11-17T03:07:49.470Z,1.80
2022-11-17T03:10:21.108Z,2.50
2022-11-17T03:12:55.957Z,2.20
2022-11-17T03:15:34.737Z,1.60
2022-11-17T03:18:09.352Z,1.70
2022-11-17T03:20:45.333Z,1.50
2022-11-17T03:23:19.379Z,2.40
2022-11-17T03:25:51.465Z,2.57
2022-11-17T03:28:22.714Z,2.17
2022-11-17T03:30:53.264Z,1.90
2022-11-17T03:33:24.545Z,2.03
2022-11-17T03:35:58.128Z,2.23
2022-11-17T03:38:30.008Z,2.33
2022-11-17T03:41:03.096Z,2.10
2022-11-17T03:43:32.721Z,1.93
2022-11-17T03:46:06.179Z,2.23
2022-11-17T03:48:37.862Z,2.30
2022-11-17T03:51:09.266Z,2.43
2022-11-17T03:53:38.186Z,3.10
2022-11-17T03:56:16.088Z,2.90
2022-11-17T03:58:54.442Z,2.60
2022-11-17T04:01:25.632Z,2.40
2022-11-17T04:03:54.204Z,3.93
2022-11-17T04:06:22.194Z,1.90
2022-11-17T04:08:50.174Z,2.50
2022-11-17T04:11:35.674Z,3.10
2022-11-17T04:14:21.255Z,3.20
2022-11-17T04:16:50.548Z,1.90
2022-11-17T04:19:18.495Z,1.90
2022-11-17T04:21:46.448Z,2.80
2022-11-17T04:24:14.364Z,2.80
2022-11-17T04:26:59.728Z,4.73
2022-11-17T04:29:28.486Z,3.00
2022-11-17T04:31:57.839Z,2.77
2022-11-17T04:34:25.759Z,2.80
2022-11-17T04:36:53.881Z,2.20
2022-11-17T04:39:21.824Z,2.67
2022-11-17T04:41:54.680Z,2.40
2022-11-17T04:44:24.635Z,2.87
2022-11-17T04:46:53.286Z,2.80
2022-11-17T04:49:23.708Z,2.87
2022-11-17T04:51:52.569Z,3.03
2022-11-17T04:54:23.695Z,2.80
2022-11-17T04:56:52.504Z,3.07
2022-11-17T04:59:20.501Z,3.23
2022-11-17T05:01:48.950Z,2.63
2022-11-17T05:04:40.279Z,2.47
2022-11-17T05:07:10.248Z,2.37
2022-11-17T05:09:38.401Z,2.53
2022-11-17T05:12:25.223Z,2.43
2022-11-17T05:14:53.165Z,2.00
2022-11-17T05:17:20.161Z,2.00
2022-11-17T05:19:49.448Z,2.53
2022-11-17T05:22:37.941Z,3.13
2022-11-17T05:25:07.200Z,3.20
2022-11-17T05:27:35.416Z,2.60
2022-11-17T05:30:04.015Z,2.10
2022-11-17T05:32:31.962Z,4.73
2022-11-17T05:34:59.919Z,2.50
2022-11-17T05:37:29.250Z,2.33
2022-11-17T05:39:57.223Z,2.73
2022-11-17T05:42:25.198Z,2.50
2022-11-17T05:44:53.182Z,2.80
2022-11-17T05:47:21.131Z,3.00
2022-11-17T05:49:49.054Z,2.90
2022-11-17T05:52:16.990Z,2.93
2022-11-17T05:54:46.322Z,2.43
2022-11-17T05:57:17.922Z,3.50
2022-11-17T05:59:50.471Z,2.20
2022-11-17T06:02:24.117Z,2.67
2022-11-17T06:04:53.066Z,3.10
2022-11-17T06:07:21.233Z,2.50
2022-11-17T06:09:52.052Z,2.40
2022-11-17T06:12:20.028Z,2.23
2022-11-17T06:14:48.000Z,2.40
2022-11-17T06:17:23.016Z,2.03
2022-11-17T06:19:55.485Z,2.47
2022-11-17T06:22:23.571Z,2.43
2022-11-17T06:24:52.867Z,2.47
2022-11-17T06:27:20.878Z,2.30
2022-11-17T06:29:49.756Z,2.37
2022-11-17T06:32:19.716Z,2.53
2022-11-17T06:34:55.151Z,2.40
2022-11-17T06:37:24.531Z,2.57
2022-11-17T06:39:54.002Z,2.60
2022-11-17T06:42:42.875Z,2.53
2022-11-17T06:45:11.579Z,2.23
2022-11-17T06:47:39.707Z,2.03
2022-11-17T06:50:08.577Z,3.30
2022-11-17T06:52:36.569Z,3.37
2022-11-17T06:55:06.665Z,2.00
2022-11-17T06:57:34.673Z,1.70
2022-11-17T07:00:02.815Z,2.00
2022-11-17T07:02:32.697Z,2.27
2022-11-17T07:05:00.746Z,2.30
2022-11-17T07:07:28.782Z,2.23
2022-11-17T07:09:56.850Z,2.30
2022-11-17T07:12:26.201Z,2.33
2022-11-17T07:14:54.404Z,2.60
2022-11-17T07:17:22.435Z,3.30
2022-11-17T07:19:50.488Z,3.37
2022-11-17T07:22:18.618Z,2.13
2022-11-17T07:24:46.622Z,1.80
2022-11-17T07:27:14.653Z,2.40
2022-11-17T07:29:44.030Z,1.50
2022-11-17T07:32:13.868Z,1.93
2022-11-17T07:34:42.636Z,1.90
2022-11-17T07:37:10.677Z,1.53
2022-11-17T07:39:38.696Z,1.33
2022-11-17T07:42:06.813Z,1.50
2022-11-17T07:44:34.983Z,2.00
2022-11-17T07:47:04.316Z,0.97
2022-11-17T07:49:32.302Z,0.90
2022-11-17T07:52:00.314Z,1.20
2022-11-17T07:54:28.330Z,1.20
2022-11-17T07:56:56.401Z,1.30
2022-11-17T07:59:24.447Z,1.50
2022-11-17T08:01:52.441Z,1.07
2022-11-17T08:04:21.853Z,1.57
2022-11-17T08:06:49.937Z,0.80
2022-11-17T08:09:18.036Z,1.40
2022-11-17T08:11:46.078Z,1.00
2022-11-17T08:14:14.070Z,0.87
2022-11-17T08:16:42.167Z,1.00
2022-11-17T08:19:12.023Z,1.27
2022-11-17T08:21:42.137Z,1.10
2022-11-17T08:24:10.290Z,0.87
2022-11-17T08:26:38.354Z,0.60
2022-11-17T08:29:06.379Z,0.70
2022-11-17T08:31:34.661Z,0.70
2022-11-17T08:34:02.675Z,0.60
2022-11-17T08:36:30.671Z,0.80
2022-11-17T08:39:00.050Z,0.70
2022-11-17T08:41:28.082Z,1.33
2022-11-17T08:43:56.103Z,0.80
2022-11-17T08:46:25.785Z,0.90
2022-11-17T08:48:56.944Z,0.73
2022-11-17T08:51:27.276Z,0.90
2022-11-17T08:53:55.421Z,0.70
2022-11-17T08:56:24.866Z,0.80
2022-11-17T08:58:52.880Z,1.00
2022-11-17T09:01:21.155Z,0.80
2022-11-17T09:03:49.593Z,0.80
2022-11-17T09:06:20.041Z,0.80
2022-11-17T09:08:48.680Z,0.90
2022-11-17T09:11:17.121Z,0.60
2022-11-17T09:13:47.051Z,0.80
2022-11-17T09:16:16.529Z,0.60
2022-11-17T09:18:44.908Z,0.60
2022-11-17T09:21:15.213Z,1.20
2022-11-17T09:23:43.834Z,0.60
2022-11-17T09:26:13.428Z,0.80
2022-11-17T09:28:42.055Z,0.90
2022-11-17T09:31:13.568Z,0.90
2022-11-17T09:33:42.069Z,0.67
2022-11-17T09:36:10.921Z,0.83
2022-11-17T09:38:39.285Z,1.10
2022-11-17T09:41:19.540Z,0.70
2022-11-17T09:43:52.002Z,0.50
2022-11-17T09:46:24.262Z,0.67
2022-11-17T09:48:59.275Z,0.77
2022-11-17T09:51:30.752Z,1.07
2022-11-17T09:54:04.678Z,1.27
2022-11-17T09:56:33.122Z,1.63
2022-11-17T09:59:05.157Z,0.77
2022-11-17T10:01:34.689Z,0.93
2022-11-17T10:04:02.727Z,1.00
2022-11-17T10:06:33.016Z,0.80
2022-11-17T10:09:05.928Z,0.90
2022-11-17T10:11:36.636Z,0.70
2022-11-17T10:14:13.705Z,0.80
2022-11-17T10:16:45.640Z,0.70
2022-11-17T10:19:17.960Z,0.73
2022-11-17T10:21:48.298Z,1.20
2022-11-17T10:24:34.776Z,0.70
2022-11-17T10:27:04.103Z,1.00
2022-11-17T10:29:32.161Z,1.00
2022-11-17T10:32:03.818Z,0.70
2022-11-17T10:34:40.211Z,0.73
2022-11-17T10:37:25.394Z,0.70
2022-11-17T10:40:10.087Z,0.70
2022-11-17T10:42:38.115Z,0.80
2022-11-17T10:45:07.474Z,0.80
2022-11-17T10:47:39.319Z,0.80
2022-11-17T10:50:18.571Z,0.50
2022-11-17T10:52:46.844Z,0.70
2022-11-17T10:55:20.909Z,1.00
2022-11-17T10:57:53.642Z,1.00
2022-11-17T11:00:28.091Z,0.90
2022-11-17T11:03:19.581Z,0.97
2022-11-17T11:06:06.209Z,1.70
2022-11-17T11:08:51.032Z,0.90
2022-11-17T11:11:26.719Z,1.03
2022-11-17T11:13:58.643Z,0.83
2022-11-17T11:16:30.271Z,0.80
2022-11-17T11:18:59.663Z,1.70
2022-11-17T11:21:43.550Z,0.87
2022-11-17T11:24:20.791Z,1.20
2022-11-17T11:26:57.802Z,0.73
2022-11-17T11:29:41.915Z,0.70
2022-11-17T11:32:24.701Z,0.90
2022-11-17T11:35:17.468Z,1.60
2022-11-17T11:37:52.096Z,1.13
2022-11-17T11:40:27.826Z,1.00
2022-11-17T11:42:59.530Z,1.13
2022-11-17T11:45:46.216Z,1.00
2022-11-17T11:48:24.864Z,0.70
2022-11-17T11:50:57.597Z,1.10
2022-11-17T11:53:36.133Z,0.87
2022-11-17T11:56:15.876Z,0.83
2022-11-17T11:58:48.134Z,1.53
2022-11-17T12:01:18.870Z,1.17
2022-11-17T12:03:53.789Z,1.23
2022-11-17T12:06:43.086Z,0.90
2022-11-17T12:09:31.222Z,1.47
2022-11-17T12:12:03.345Z,0.90
2022-11-17T12:14:33.073Z,0.73
2022-11-17T12:17:17.193Z,1.03
2022-11-17T12:19:57.233Z,1.00
2022-11-17T12:22:54.294Z,0.90
2022-11-17T12:25:28.218Z,0.63
2022-11-17T12:27:56.494Z,0.93
2022-11-17T12:30:52.615Z,1.17
2022-11-17T12:33:20.914Z,0.97
2022-11-17T12:36:31.240Z,1.60
2022-11-17T12:39:02.149Z,0.97
2022-11-17T12:42:07.830Z,1.70
2022-11-17T12:45:00.859Z,1.10
2022-11-17T12:47:31.241Z,0.80
2022-11-17T12:50:33.574Z,0.80
2022-11-17T12:53:27.105Z,1.00
2022-11-17T12:56:33.722Z,1.30
2022-11-17T12:59:13.965Z,0.97
2022-11-17T13:01:46.076Z,1.77
2022-11-17T13:04:17.806Z,1.50
2022-11-17T13:07:02.261Z,0.80
2022-11-17T13:09:33.327Z,0.90
2022-11-17T13:12:04.118Z,1.50
2022-11-17T13:14:34.748Z,0.90
2022-11-17T13:17:03.701Z,1.20
2022-11-17T13:19:34.210Z,1.23
2022-11-17T13:22:03.831Z,1.00
2022-11-17T13:24:33.472Z,0.73
2022-11-17T13:27:02.572Z,1.00
2022-11-17T13:29:31.806Z,0.93
2022-11-17T13:32:18.624Z,1.70
2022-11-17T13:34:48.150Z,0.70
2022-11-17T13:37:18.993Z,1.80
2022-11-17T13:40:03.554Z,1.83
2022-11-17T13:42:34.322Z,1.43
2022-11-17T13:45:04.788Z,0.73
2022-11-17T13:47:53.683Z,0.87
2022-11-17T13:50:34.650Z,1.10
2022-11-17T13:53:06.197Z,1.10
2022-11-17T13:55:35.279Z,1.40
2022-11-17T13:58:06.391Z,1.27
2022-11-17T14:00:34.952Z,1.00
2022-11-17T14:03:06.315Z,0.70
2022-11-17T14:05:35.259Z,1.47
2022-11-17T14:08:14.825Z,0.80
2022-11-17T14:10:42.901Z,1.90
2022-11-17T14:13:29.869Z,0.83
2022-11-17T14:16:00.596Z,1.07
2022-11-17T14:18:34.113Z,1.23
2022-11-17T14:21:06.231Z,1.33
2022-11-17T14:23:34.465Z,1.00
2022-11-17T14:26:02.482Z,1.33
2022-11-17T14:28:30.444Z,1.37
2022-11-17T14:30:59.552Z,0.93
2022-11-17T14:33:27.632Z,1.20
2022-11-17T14:36:00.222Z,1.33
2022-11-17T14:38:28.831Z,1.40
2022-11-17T14:40:56.777Z,1.20
2022-11-17T14:43:24.850Z,3.20
2022-11-17T14:45:52.979Z,0.93
2022-11-17T14:48:22.292Z,1.30
2022-11-17T14:50:56.191Z,1.27
2022-11-17T14:53:26.460Z,1.63
2022-11-17T14:55:54.670Z,1.10
2022-11-17T14:58:22.808Z,1.13
2022-11-17T15:00:51.212Z,0.97
2022-11-17T15:03:19.437Z,1.20
2022-11-17T15:05:47.462Z,1.13
2022-11-17T15:08:15.536Z,1.60
2022-11-17T15:10:46.263Z,1.37
2022-11-17T15:13:14.256Z,0.83
2022-11-17T15:15:42.263Z,1.27
2022-11-17T15:18:12.514Z,1.80
2022-11-17T15:20:40.513Z,1.00
2022-11-17T15:23:08.588Z,1.47
2022-11-17T15:25:39.022Z,1.13
2022-11-17T15:28:08.711Z,1.30
2022-11-17T15:30:36.730Z,0.97
2022-11-17T15:33:04.854Z,1.07
2022-11-17T15:35:32.963Z,1.00
2022-11-17T15:38:00.954Z,1.00
2022-11-17T15:40:29.264Z,1.77
2022-11-17T15:42:57.247Z,1.10
2022-11-17T15:45:26.648Z,1.13
2022-11-17T15:47:54.621Z,1.10
2022-11-17T15:50:22.683Z,1.00
2022-11-17T15:53:04.180Z,1.20
2022-11-17T15:55:35.070Z,1.30
2022-11-17T15:58:03.045Z,1.63
2022-11-17T16:00:34.505Z,2.57
2022-11-17T16:03:02.636Z,1.87
2022-11-17T16:05:30.595Z,1.40
2022-11-17T16:07:58.585Z,1.27
2022-11-17T16:10:27.335Z,1.93
2022-11-17T16:12:56.333Z,2.40
2022-11-17T16:15:24.487Z,2.10
2022-11-17T16:17:54.145Z,1.80
2022-11-17T16:20:22.203Z,3.87
2022-11-17T16:22:50.270Z,2.10
2022-11-17T16:25:18.411Z,1.47
2022-11-17T16:27:46.411Z,1.73
2022-11-17T16:30:14.903Z,1.10
2022-11-17T16:32:43.022Z,1.00
2022-11-17T16:35:12.368Z,1.10
2022-11-17T16:37:40.743Z,0.80
2022-11-17T16:40:09.463Z,1.80
2022-11-17T16:42:37.838Z,1.03
2022-11-17T16:45:06.569Z,1.33
2022-11-17T16:47:34.581Z,1.93
2022-11-17T16:50:03.578Z,1.33
2022-11-17T16:52:35.505Z,1.10
2022-11-17T16:55:05.349Z,1.20
2022-11-17T16:57:33.570Z,1.37
2022-11-17T17:00:01.606Z,1.33
2022-11-17T17:02:41.780Z,0.80
2022-11-17T17:05:09.878Z,1.00
2022-11-17T17:07:39.317Z,0.90
2022-11-17T17:10:08.458Z,1.90
2022-11-17T17:12:36.477Z,3.60
2022-11-17T17:15:05.000Z,4.63
2022-11-17T17:17:33.147Z,5.23
2022-11-17T17:20:01.387Z,5.23
2022-11-17T17:22:29.510Z,4.30
2022-11-17T17:24:59.158Z,4.07
2022-11-17T17:27:27.311Z,3.63
2022-11-17T17:29:57.071Z,4.57
2022-11-17T17:32:25.319Z,5.07
2022-11-17T17:34:53.469Z,4.90
2022-11-17T17:37:21.596Z,5.67
2022-11-17T17:39:49.618Z,6.10
2022-11-17T17:42:20.408Z,6.57
2022-11-17T17:44:48.419Z,2.87
2022-11-17T17:47:16.382Z,1.70
2022-11-17T17:49:44.380Z,1.80
2022-11-17T17:52:13.975Z,2.77
2022-11-17T17:54:42.187Z,3.87
2022-11-17T17:57:10.693Z,2.83
2022-11-17T17:59:40.039Z,6.03
2022-11-17T18:02:08.111Z,12.00
2022-11-17T18:04:36.167Z,6.90
2022-11-17T18:07:04.188Z,3.80
2022-11-17T18:09:32.687Z,5.87
2022-11-17T18:12:00.738Z,7.07
2022-11-17T18:14:28.951Z,5.50
2022-11-17T18:16:58.640Z,3.67
2022-11-17T18:19:32.562Z,4.23
2022-11-17T18:22:01.362Z,2.63
2022-11-17T18:24:29.427Z,3.50
2022-11-17T18:26:57.452Z,2.63
2022-11-17T18:29:25.520Z,2.97
2022-11-17T18:31:53.552Z,3.20
2022-11-17T18:34:24.532Z,3.80
2022-11-17T18:36:55.600Z,2.90
2022-11-17T18:39:24.076Z,4.37
2022-11-17T18:41:52.236Z,2.80
2022-11-17T18:44:20.407Z,2.73
2022-11-17T18:46:48.753Z,5.83
2022-11-17T18:49:17.151Z,5.83
2022-11-17T18:51:46.939Z,5.03
2022-11-17T18:54:15.049Z,1.53
2022-11-17T18:56:44.527Z,1.40
2022-11-17T18:59:12.758Z,1.60
2022-11-17T19:01:42.824Z,1.10
2022-11-17T19:04:12.550Z,1.87
2022-11-17T19:06:40.542Z,2.20
2022-11-17T19:09:10.795Z,1.43
2022-11-17T19:11:39.915Z,2.77
2022-11-17T19:14:08.006Z,1.20
2022-11-17T19:16:44.457Z,1.30
2022-11-17T19:19:15.096Z,1.13
2022-11-17T19:21:43.955Z,0.90
2022-11-17T19:24:13.411Z,1.07
2022-11-17T19:26:42.904Z,1.43
2022-11-17T19:29:16.522Z,1.00
2022-11-17T19:31:45.667Z,0.93
2022-11-17T19:34:13.850Z,0.80
2022-11-17T19:36:41.854Z,0.87
2022-11-17T19:39:09.857Z,1.50
2022-11-17T19:41:39.698Z,0.90
2022-11-17T19:44:09.509Z,0.77
2022-11-17T19:46:38.999Z,1.23
2022-11-17T19:51:50.665Z,1.00
2022-11-17T19:54:19.015Z,0.80
2022-11-17T19:56:48.473Z,1.00
2022-11-17T19:59:17.038Z,0.70
2022-11-17T20:01:45.945Z,0.90
2022-11-17T20:04:14.285Z,1.03
2022-11-17T20:06:42.363Z,1.00
2022-11-17T20:09:11.733Z,1.17
2022-11-17T20:11:40.582Z,0.83
2022-11-17T20:14:10.749Z,0.87
2022-11-17T20:16:39.409Z,0.80
2022-11-17T20:19:07.573Z,1.03
2022-11-17T20:21:35.603Z,0.93
2022-11-17T20:24:03.677Z,1.93
2022-11-17T20:26:34.035Z,2.37
2022-11-17T20:29:02.660Z,3.50
2022-11-17T20:31:34.013Z,4.23
2022-11-17T20:34:03.412Z,3.73
2022-11-17T20:36:34.375Z,5.03
2022-11-17T20:39:04.283Z,3.13
2022-11-17T20:41:32.939Z,3.87
2022-11-17T20:44:03.115Z,3.07
2022-11-17T20:46:32.872Z,4.67
2022-11-17T20:49:01.083Z,4.00
2022-11-17T20:51:29.189Z,7.00
2022-11-17T20:53:57.282Z,3.33
2022-11-17T20:56:25.461Z,1.80
2022-11-17T20:58:53.649Z,1.43
2022-11-17T21:01:23.856Z,2.43
2022-11-17T21:03:53.863Z,1.53
2022-11-17T21:06:23.337Z,1.23
2022-11-17T21:08:51.577Z,1.27
2022-11-17T21:11:35.479Z,0.90
2022-11-17T21:14:04.192Z,1.10
2022-11-17T21:16:32.905Z,1.10
2022-11-17T21:19:02.337Z,1.00
2022-11-17T21:21:30.333Z,1.40
2022-11-17T21:23:58.473Z,1.50
2022-11-17T21:26:27.728Z,3.17
2022-11-17T21:28:57.582Z,2.57
2022-11-17T21:31:29.600Z,1.40
2022-11-17T21:33:59.579Z,1.10
2022-11-17T21:36:30.570Z,0.70
2022-11-17T21:38:59.021Z,0.80
2022-11-17T21:41:28.831Z,0.90
2022-11-17T21:43:59.968Z,0.80
2022-11-17T21:46:30.115Z,0.80
2022-11-17T21:48:59.662Z,1.10
2022-11-17T21:51:33.330Z,0.87
2022-11-17T21:54:03.259Z,1.37
2022-11-17T21:56:32.079Z,1.27
2022-11-17T21:59:01.828Z,1.43
2022-11-17T22:01:30.460Z,0.80
2022-11-17T22:03:59.072Z,1.30
2022-11-17T22:06:28.843Z,1.37
2022-11-17T22:08:57.716Z,0.83
2022-11-17T22:11:37.296Z,0.90
2022-11-17T22:14:08.215Z,0.90
2022-11-17T22:16:37.106Z,1.23
2022-11-17T22:19:05.923Z,0.73
2022-11-17T22:21:37.257Z,0.70
2022-11-17T22:24:06.323Z,0.77
2022-11-17T22:26:35.861Z,0.87
2022-11-17T22:29:04.161Z,0.77
2022-11-17T22:31:32.544Z,1.03
2022-11-17T22:34:00.768Z,1.17
2022-11-17T22:36:28.749Z,1.17
2022-11-17T22:38:58.078Z,1.03
2022-11-17T22:41:26.281Z,0.90
2022-11-17T22:43:55.845Z,0.70
2022-11-17T22:46:25.798Z,1.10
2022-11-17T22:48:54.246Z,1.20
2022-11-17T22:51:36.503Z,1.00
2022-11-17T22:54:06.601Z,1.40
2022-11-17T22:56:34.803Z,1.03
2022-11-17T22:59:02.959Z,0.80
2022-11-17T23:01:31.068Z,1.27
2022-11-17T23:03:59.276Z,1.20
2022-11-17T23:06:28.383Z,1.67
2022-11-17T23:08:58.173Z,1.23
2022-11-17T23:11:37.507Z,0.93
2022-11-17T23:14:06.117Z,1.20
2022-11-17T23:16:34.122Z,1.10
2022-11-17T23:19:02.135Z,1.03
2022-11-17T23:21:30.089Z,1.20
2022-11-17T23:23:58.125Z,0.97
2022-11-17T23:26:27.871Z,1.03
2022-11-17T23:28:55.889Z,1.40
2022-11-17T23:31:23.902Z,0.90
2022-11-17T23:33:51.929Z,0.80
2022-11-17T23:36:22.462Z,1.10
2022-11-17T23:38:51.526Z,1.10
2022-11-17T23:41:20.947Z,1.30
2022-11-17T23:43:53.113Z,1.23
2022-11-17T23:46:22.946Z,1.30
2022-11-17T23:48:51.526Z,1.13
2022-11-17T23:51:21.499Z,1.30
2022-11-17T23:53:50.075Z,1.33
2022-11-17T23:56:20.450Z,1.10
2022-11-17T23:58:48.870Z,1.30
